sensor_id;sensor_type;location;lat;lon;timestamp;pressure;altitude;pressure_sealevel;temperature;humidity
40730;BME280;26418;50.070;8.436;2023-05-23T00:00:37;99811.97;;;18.60;82.53
40730;BME280;26418;50.070;8.436;2023-05-23T00:03:02;99803.31;;;18.58;82.64
40730;BME280;26418;50.070;8.436;2023-05-23T00:05:28;99816.31;;;18.61;82.38
40730;BME280;26418;50.070;8.436;2023-05-23T00:07:54;99811.28;;;18.63;82.37
40730;BME280;26418;50.070;8.436;2023-05-23T00:10:20;99797.13;;;18.61;82.45
40730;BME280;26418;50.070;8.436;2023-05-23T00:12:46;99806.13;;;18.62;82.44
40730;BME280;26418;50.070;8.436;2023-05-23T00:15:12;99799.44;;;18.59;82.73
40730;BME280;26418;50.070;8.436;2023-05-23T00:17:38;99795.03;;;18.54;82.52
40730;BME280;26418;50.070;8.436;2023-05-23T00:20:07;99796.25;;;18.57;82.39
40730;BME280;26418;50.070;8.436;2023-05-23T00:22:37;99804.91;;;18.59;82.24
40730;BME280;26418;50.070;8.436;2023-05-23T00:25:05;99813.13;;;18.59;82.40
40730;BME280;26418;50.070;8.436;2023-05-23T00:27:31;99825.22;;;18.58;82.58
40730;BME280;26418;50.070;8.436;2023-05-23T00:29:56;99815.41;;;18.57;82.68
40730;BME280;26418;50.070;8.436;2023-05-23T00:32:22;99823.56;;;18.53;82.84
40730;BME280;26418;50.070;8.436;2023-05-23T00:34:47;99822.78;;;18.53;82.84
40730;BME280;26418;50.070;8.436;2023-05-23T00:37:13;99824.19;;;18.47;83.02
40730;BME280;26418;50.070;8.436;2023-05-23T00:39:39;99827.03;;;18.50;82.80
40730;BME280;26418;50.070;8.436;2023-05-23T00:42:05;99821.56;;;18.50;82.35
40730;BME280;26418;50.070;8.436;2023-05-23T00:44:31;99828.97;;;18.50;81.05
40730;BME280;26418;50.070;8.436;2023-05-23T00:46:57;99842.28;;;18.51;81.17
40730;BME280;26418;50.070;8.436;2023-05-23T00:49:23;99843.09;;;18.52;81.03
40730;BME280;26418;50.070;8.436;2023-05-23T00:51:51;99842.03;;;18.57;80.80
40730;BME280;26418;50.070;8.436;2023-05-23T00:54:23;99849.53;;;18.60;80.41
40730;BME280;26418;50.070;8.436;2023-05-23T00:56:49;99849.88;;;18.58;80.27
40730;BME280;26418;50.070;8.436;2023-05-23T00:59:15;99843.09;;;18.52;81.03
40730;BME280;26418;50.070;8.436;2023-05-23T01:01:42;99859.44;;;18.48;81.10
40730;BME280;26418;50.070;8.436;2023-05-23T01:04:11;99852.66;;;18.42;80.82
40730;BME280;26418;50.070;8.436;2023-05-23T01:06:37;99858.13;;;18.42;81.15
40730;BME280;26418;50.070;8.436;2023-05-23T01:09:03;99860.44;;;18.40;80.55
40730;BME280;26418;50.070;8.436;2023-05-23T01:11:35;99849.03;;;18.38;80.81
40730;BME280;26418;50.070;8.436;2023-05-23T01:14:13;99850.00;;;18.30;80.99
40730;BME280;26418;50.070;8.436;2023-05-23T01:16:49;99857.53;;;18.33;81.00
40730;BME280;26418;50.070;8.436;2023-05-23T01:20:03;99854.25;;;18.27;80.66
40730;BME280;26418;50.070;8.436;2023-05-23T01:27:50;99840.84;;;18.06;81.44
40730;BME280;26418;50.070;8.436;2023-05-23T01:30:18;99843.56;;;18.06;81.46
40730;BME280;26418;50.070;8.436;2023-05-23T01:32:47;99847.72;;;18.00;81.65
40730;BME280;26418;50.070;8.436;2023-05-23T01:35:23;99843.41;;;17.99;81.97
40730;BME280;26418;50.070;8.436;2023-05-23T01:37:50;99852.31;;;17.96;82.08
40730;BME280;26418;50.070;8.436;2023-05-23T01:40:16;99852.09;;;17.88;81.98
40730;BME280;26418;50.070;8.436;2023-05-23T01:42:42;99854.06;;;17.88;82.26
40730;BME280;26418;50.070;8.436;2023-05-23T01:45:08;99853.25;;;17.87;81.96
40730;BME280;26418;50.070;8.436;2023-05-23T01:47:34;99847.59;;;17.80;82.17
40730;BME280;26418;50.070;8.436;2023-05-23T01:50:01;99852.88;;;17.73;82.25
40730;BME280;26418;50.070;8.436;2023-05-23T01:52:27;99848.81;;;17.67;82.84
40730;BME280;26418;50.070;8.436;2023-05-23T01:54:54;99856.78;;;17.59;83.30
40730;BME280;26418;50.070;8.436;2023-05-23T01:57:21;99858.66;;;17.55;83.52
40730;BME280;26418;50.070;8.436;2023-05-23T01:59:47;99860.84;;;17.50;83.60
40730;BME280;26418;50.070;8.436;2023-05-23T02:02:12;99864.81;;;17.52;82.50
40730;BME280;26418;50.070;8.436;2023-05-23T02:04:38;99867.44;;;17.49;82.84
40730;BME280;26418;50.070;8.436;2023-05-23T02:07:04;99869.63;;;17.43;82.76
40730;BME280;26418;50.070;8.436;2023-05-23T02:09:30;99876.84;;;17.35;82.61
40730;BME280;26418;50.070;8.436;2023-05-23T02:11:56;99887.44;;;17.37;82.39
40730;BME280;26418;50.070;8.436;2023-05-23T02:14:21;99885.84;;;17.36;81.83
40730;BME280;26418;50.070;8.436;2023-05-23T02:16:48;99883.72;;;17.29;81.84
40730;BME280;26418;50.070;8.436;2023-05-23T02:19:13;99892.97;;;17.24;81.85
40730;BME280;26418;50.070;8.436;2023-05-23T02:21:39;99882.25;;;17.19;82.14
40730;BME280;26418;50.070;8.436;2023-05-23T02:24:05;99891.59;;;17.18;81.73
40730;BME280;26418;50.070;8.436;2023-05-23T02:26:30;99879.22;;;17.08;81.47
40730;BME280;26418;50.070;8.436;2023-05-23T02:28:56;99887.31;;;17.05;81.90
40730;BME280;26418;50.070;8.436;2023-05-23T02:31:22;99886.75;;;16.99;81.57
40730;BME280;26418;50.070;8.436;2023-05-23T02:33:48;99897.22;;;16.97;81.51
40730;BME280;26418;50.070;8.436;2023-05-23T02:36:13;99890.94;;;16.84;81.38
40730;BME280;26418;50.070;8.436;2023-05-23T02:38:39;99895.97;;;16.82;81.53
40730;BME280;26418;50.070;8.436;2023-05-23T02:41:04;99897.00;;;16.77;81.30
40730;BME280;26418;50.070;8.436;2023-05-23T02:43:30;99911.53;;;16.81;80.55
40730;BME280;26418;50.070;8.436;2023-05-23T02:45:55;99912.34;;;16.82;80.65
40730;BME280;26418;50.070;8.436;2023-05-23T02:48:21;99909.06;;;16.76;80.47
40730;BME280;26418;50.070;8.436;2023-05-23T02:50:47;99911.56;;;16.69;80.77
40730;BME280;26418;50.070;8.436;2023-05-23T02:53:12;99913.25;;;16.61;80.86
40730;BME280;26418;50.070;8.436;2023-05-23T02:55:38;99924.66;;;16.63;80.58
40730;BME280;26418;50.070;8.436;2023-05-23T02:58:03;99914.28;;;16.57;80.46
40730;BME280;26418;50.070;8.436;2023-05-23T03:00:30;99922.25;;;16.62;80.50
40730;BME280;26418;50.070;8.436;2023-05-23T03:02:57;99924.53;;;16.60;80.59
40730;BME280;26418;50.070;8.436;2023-05-23T03:05:22;99928.75;;;16.57;80.58
40730;BME280;26418;50.070;8.436;2023-05-23T03:07:48;99914.63;;;16.55;79.87
40730;BME280;26418;50.070;8.436;2023-05-23T03:10:13;99912.81;;;16.47;79.31
40730;BME280;26418;50.070;8.436;2023-05-23T03:12:39;99922.59;;;16.48;79.55
40730;BME280;26418;50.070;8.436;2023-05-23T03:15:05;99913.81;;;16.42;79.66
40730;BME280;26418;50.070;8.436;2023-05-23T03:17:31;99916.91;;;16.41;78.93
40730;BME280;26418;50.070;8.436;2023-05-23T03:19:56;99923.03;;;16.38;78.48
40730;BME280;26418;50.070;8.436;2023-05-23T03:22:22;99916.66;;;16.33;78.23
40730;BME280;26418;50.070;8.436;2023-05-23T03:24:47;99917.34;;;16.30;78.72
40730;BME280;26418;50.070;8.436;2023-05-23T03:27:13;99930.63;;;16.32;78.67
40730;BME280;26418;50.070;8.436;2023-05-23T03:29:38;99936.09;;;16.32;78.66
40730;BME280;26418;50.070;8.436;2023-05-23T03:32:04;99940.31;;;16.29;78.75
40730;BME280;26418;50.070;8.436;2023-05-23T03:34:31;99937.66;;;16.21;79.09
40730;BME280;26418;50.070;8.436;2023-05-23T03:36:57;99939.94;;;16.18;79.35
40730;BME280;26418;50.070;8.436;2023-05-23T03:39:23;99954.25;;;16.15;79.44
40730;BME280;26418;50.070;8.436;2023-05-23T03:41:49;99947.53;;;16.13;79.47
40730;BME280;26418;50.070;8.436;2023-05-23T03:44:15;99948.69;;;16.12;78.75
40730;BME280;26418;50.070;8.436;2023-05-23T03:46:40;99949.34;;;16.09;78.76
40730;BME280;26418;50.070;8.436;2023-05-23T03:49:06;99951.75;;;16.10;78.38
40730;BME280;26418;50.070;8.436;2023-05-23T03:51:32;99954.47;;;16.10;78.67
40730;BME280;26418;50.070;8.436;2023-05-23T03:53:58;99962.31;;;16.12;78.73
40730;BME280;26418;50.070;8.436;2023-05-23T03:56:23;99963.69;;;16.18;78.28
40730;BME280;26418;50.070;8.436;2023-05-23T03:58:50;99958.59;;;16.16;78.20
40730;BME280;26418;50.070;8.436;2023-05-23T04:01:15;99953.78;;;16.13;78.43
40730;BME280;26418;50.070;8.436;2023-05-23T04:03:41;99956.06;;;16.11;78.65
40730;BME280;26418;50.070;8.436;2023-05-23T04:06:07;99962.91;;;16.17;77.32
40730;BME280;26418;50.070;8.436;2023-05-23T04:08:32;99965.88;;;16.25;76.97
40730;BME280;26418;50.070;8.436;2023-05-23T04:10:59;99962.22;;;16.21;76.68
40730;BME280;26418;50.070;8.436;2023-05-23T04:13:26;99956.63;;;16.17;76.43
40730;BME280;26418;50.070;8.436;2023-05-23T04:15:52;99955.72;;;16.13;76.75
40730;BME280;26418;50.070;8.436;2023-05-23T04:18:20;99971.28;;;16.12;76.76
40730;BME280;26418;50.070;8.436;2023-05-23T04:20:46;99974.84;;;16.13;77.00
40730;BME280;26418;50.070;8.436;2023-05-23T04:23:12;99980.19;;;16.22;76.66
40730;BME280;26418;50.070;8.436;2023-05-23T04:25:37;99973.28;;;16.24;75.66
40730;BME280;26418;50.070;8.436;2023-05-23T04:28:04;99987.59;;;16.21;75.87
40730;BME280;26418;50.070;8.436;2023-05-23T04:30:31;99987.94;;;16.19;76.37
40730;BME280;26418;50.070;8.436;2023-05-23T04:32:57;99985.19;;;16.19;76.18
40730;BME280;26418;50.070;8.436;2023-05-23T04:35:24;99986.94;;;16.24;75.40
40730;BME280;26418;50.070;8.436;2023-05-23T04:37:53;99998.09;;;16.31;75.12
40730;BME280;26418;50.070;8.436;2023-05-23T04:40:24;99988.63;;;16.29;73.94
40730;BME280;26418;50.070;8.436;2023-05-23T04:42:50;100000.13;;;16.34;74.16
40730;BME280;26418;50.070;8.436;2023-05-23T04:45:18;100003.31;;;16.37;74.47
40730;BME280;26418;50.070;8.436;2023-05-23T04:47:44;99997.19;;;16.40;73.18
40730;BME280;26418;50.070;8.436;2023-05-23T04:50:11;100004.56;;;16.39;73.19
40730;BME280;26418;50.070;8.436;2023-05-23T04:52:36;99999.88;;;16.27;72.69
40730;BME280;26418;50.070;8.436;2023-05-23T04:55:02;100006.03;;;16.24;73.55
40730;BME280;26418;50.070;8.436;2023-05-23T04:57:27;100010.78;;;16.27;74.09
40730;BME280;26418;50.070;8.436;2023-05-23T04:59:55;100005.56;;;16.34;73.24
40730;BME280;26418;50.070;8.436;2023-05-23T05:02:21;100007.88;;;16.45;73.24
40730;BME280;26418;50.070;8.436;2023-05-23T05:04:47;100007.34;;;16.52;72.16
40730;BME280;26418;50.070;8.436;2023-05-23T05:07:12;100012.56;;;16.57;71.95
40730;BME280;26418;50.070;8.436;2023-05-23T05:09:38;100002.47;;;16.57;71.72
40730;BME280;26418;50.070;8.436;2023-05-23T05:12:03;100009.84;;;16.57;71.76
40730;BME280;26418;50.070;8.436;2023-05-23T05:14:29;100017.69;;;16.58;71.85
40730;BME280;26418;50.070;8.436;2023-05-23T05:16:55;100007.47;;;16.55;71.97
40730;BME280;26418;50.070;8.436;2023-05-23T05:19:22;100011.09;;;16.59;71.42
40730;BME280;26418;50.070;8.436;2023-05-23T05:21:48;100013.03;;;16.59;71.65
40730;BME280;26418;50.070;8.436;2023-05-23T05:24:14;100002.22;;;16.62;71.45
40730;BME280;26418;50.070;8.436;2023-05-23T05:26:40;100019.78;;;16.74;70.96
40730;BME280;26418;50.070;8.436;2023-05-23T05:29:06;100016.78;;;16.66;70.95
40730;BME280;26418;50.070;8.436;2023-05-23T05:31:32;100018.84;;;16.70;71.29
40730;BME280;26418;50.070;8.436;2023-05-23T05:33:57;100030.59;;;16.70;71.91
40730;BME280;26418;50.070;8.436;2023-05-23T05:36:23;100035.47;;;16.77;71.76
40730;BME280;26418;50.070;8.436;2023-05-23T05:38:48;100032.06;;;16.80;70.18
40730;BME280;26418;50.070;8.436;2023-05-23T05:41:14;100032.75;;;16.77;70.60
40730;BME280;26418;50.070;8.436;2023-05-23T05:43:40;100043.91;;;16.84;70.77
40730;BME280;26418;50.070;8.436;2023-05-23T05:46:05;100034.09;;;16.83;70.07
40730;BME280;26418;50.070;8.436;2023-05-23T05:48:31;100048.47;;;16.92;70.41
40730;BME280;26418;50.070;8.436;2023-05-23T05:50:56;100048.50;;;17.05;70.53
40730;BME280;26418;50.070;8.436;2023-05-23T05:53:25;100051.03;;;17.22;69.60
40730;BME280;26418;50.070;8.436;2023-05-23T05:55:50;100048.16;;;17.31;68.18
40730;BME280;26418;50.070;8.436;2023-05-23T05:58:16;100061.22;;;17.50;67.54
40730;BME280;26418;50.070;8.436;2023-05-23T06:00:41;100059.16;;;17.59;66.46
40730;BME280;26418;50.070;8.436;2023-05-23T06:03:08;100058.94;;;17.65;66.02
40730;BME280;26418;50.070;8.436;2023-05-23T06:05:33;100064.75;;;17.75;65.41
40730;BME280;26418;50.070;8.436;2023-05-23T06:07:59;100067.13;;;17.77;65.40
40730;BME280;26418;50.070;8.436;2023-05-23T06:10:25;100074.53;;;17.76;64.76
40730;BME280;26418;50.070;8.436;2023-05-23T06:12:50;100071.34;;;17.74;64.83
40730;BME280;26418;50.070;8.436;2023-05-23T06:15:16;100081.72;;;17.69;64.30
40730;BME280;26418;50.070;8.436;2023-05-23T06:17:41;100056.94;;;17.49;64.05
40730;BME280;26418;50.070;8.436;2023-05-23T06:20:10;100081.44;;;17.46;64.09
40730;BME280;26418;50.070;8.436;2023-05-23T06:22:37;100086.44;;;17.31;64.57
40730;BME280;26418;50.070;8.436;2023-05-23T06:25:05;100079.72;;;17.16;64.85
40730;BME280;26418;50.070;8.436;2023-05-23T06:27:31;100085.16;;;17.04;65.88
40730;BME280;26418;50.070;8.436;2023-05-23T06:29:56;100089.03;;;17.03;66.03
40730;BME280;26418;50.070;8.436;2023-05-23T06:32:22;100083.47;;;17.11;65.95
40730;BME280;26418;50.070;8.436;2023-05-23T06:34:47;100081.88;;;17.10;66.38
40730;BME280;26418;50.070;8.436;2023-05-23T06:37:13;100090.19;;;17.14;66.35
40730;BME280;26418;50.070;8.436;2023-05-23T06:39:38;100089.97;;;17.19;66.42
40730;BME280;26418;50.070;8.436;2023-05-23T06:42:04;100082.88;;;17.18;66.23
40730;BME280;26418;50.070;8.436;2023-05-23T06:44:30;100091.78;;;17.27;66.29
40730;BME280;26418;50.070;8.436;2023-05-23T06:46:55;100094.31;;;17.33;66.26
40730;BME280;26418;50.070;8.436;2023-05-23T06:49:23;100098.28;;;17.35;66.13
40730;BME280;26418;50.070;8.436;2023-05-23T06:51:49;100092.00;;;17.35;66.23
40730;BME280;26418;50.070;8.436;2023-05-23T06:54:15;100099.41;;;17.34;66.13
40730;BME280;26418;50.070;8.436;2023-05-23T06:56:41;100099.75;;;17.20;66.78
40730;BME280;26418;50.070;8.436;2023-05-23T06:59:07;100104.88;;;17.09;67.20
40730;BME280;26418;50.070;8.436;2023-05-23T07:01:32;100102.03;;;17.06;67.57
40730;BME280;26418;50.070;8.436;2023-05-23T07:03:58;100101.09;;;17.02;67.95
40730;BME280;26418;50.070;8.436;2023-05-23T07:06:24;100103.03;;;17.01;67.74
40730;BME280;26418;50.070;8.436;2023-05-23T07:08:52;100107.69;;;17.01;67.48
40730;BME280;26418;50.070;8.436;2023-05-23T07:11:17;100108.91;;;16.91;67.62
40730;BME280;26418;50.070;8.436;2023-05-23T07:13:43;100099.66;;;16.83;68.55
40730;BME280;26418;50.070;8.436;2023-05-23T07:16:08;100100.66;;;17.00;68.53
40730;BME280;26418;50.070;8.436;2023-05-23T07:18:34;100092.91;;;17.26;68.49
40730;BME280;26418;50.070;8.436;2023-05-23T07:20:59;100096.63;;;17.84;66.78
40730;BME280;26418;50.070;8.436;2023-05-23T07:23:25;100099.50;;;18.28;64.27
40730;BME280;26418;50.070;8.436;2023-05-23T07:25:51;100103.38;;;18.56;62.67
40730;BME280;26418;50.070;8.436;2023-05-23T07:28:16;100096.25;;;18.67;62.09
40730;BME280;26418;50.070;8.436;2023-05-23T07:30:42;100100.94;;;18.38;62.94
40730;BME280;26418;50.070;8.436;2023-05-23T07:33:07;100109.50;;;18.08;63.79
40730;BME280;26418;50.070;8.436;2023-05-23T07:35:33;100107.84;;;17.66;65.43
40730;BME280;26418;50.070;8.436;2023-05-23T07:37:58;100118.56;;;17.59;65.50
40730;BME280;26418;50.070;8.436;2023-05-23T07:40:25;100109.09;;;17.44;65.99
40730;BME280;26418;50.070;8.436;2023-05-23T07:42:50;100111.50;;;17.33;66.15
40730;BME280;26418;50.070;8.436;2023-05-23T07:45:17;100118.56;;;17.34;66.40
40730;BME280;26418;50.070;8.436;2023-05-23T07:47:43;100120.28;;;17.39;66.54
40730;BME280;26418;50.070;8.436;2023-05-23T07:50:08;100128.22;;;17.44;66.50
40730;BME280;26418;50.070;8.436;2023-05-23T07:52:34;100126.06;;;17.50;65.97
40730;BME280;26418;50.070;8.436;2023-05-23T07:55:00;100120.50;;;17.58;66.07
40730;BME280;26418;50.070;8.436;2023-05-23T07:57:26;100119.13;;;17.52;66.23
40730;BME280;26418;50.070;8.436;2023-05-23T07:59:52;100120.50;;;17.58;66.55
40730;BME280;26418;50.070;8.436;2023-05-23T08:02:19;100105.78;;;17.75;66.00
40730;BME280;26418;50.070;8.436;2023-05-23T08:04:46;100108.34;;;18.09;64.88
40730;BME280;26418;50.070;8.436;2023-05-23T08:07:12;100117.66;;;18.49;63.80
40730;BME280;26418;50.070;8.436;2023-05-23T08:09:39;100100.16;;;18.82;62.40
40730;BME280;26418;50.070;8.436;2023-05-23T08:12:05;100108.31;;;19.10;61.17
40730;BME280;26418;50.070;8.436;2023-05-23T08:14:31;100110.09;;;19.19;60.54
40730;BME280;26418;50.070;8.436;2023-05-23T08:16:57;100131.50;;;19.13;60.79
40730;BME280;26418;50.070;8.436;2023-05-23T08:19:22;100120.88;;;19.11;61.66
40730;BME280;26418;50.070;8.436;2023-05-23T08:21:48;100120.69;;;19.04;61.52
40730;BME280;26418;50.070;8.436;2023-05-23T08:24:13;100122.50;;;18.84;60.72
40730;BME280;26418;50.070;8.436;2023-05-23T08:26:39;100136.03;;;18.77;61.15
40730;BME280;26418;50.070;8.436;2023-05-23T08:29:05;100132.81;;;18.59;61.80
40730;BME280;26418;50.070;8.436;2023-05-23T08:31:31;100137.28;;;18.51;62.68
40730;BME280;26418;50.070;8.436;2023-05-23T08:33:58;100135.50;;;18.43;62.66
40730;BME280;26418;50.070;8.436;2023-05-23T08:36:23;100142.13;;;18.42;63.21
40730;BME280;26418;50.070;8.436;2023-05-23T08:38:49;100132.59;;;18.51;63.02
40730;BME280;26418;50.070;8.436;2023-05-23T08:41:22;100145.13;;;18.81;62.83
40730;BME280;26418;50.070;8.436;2023-05-23T08:43:48;100126.09;;;19.00;60.92
40730;BME280;26418;50.070;8.436;2023-05-23T08:46:15;100124.25;;;19.05;59.90
40730;BME280;26418;50.070;8.436;2023-05-23T08:48:42;100125.66;;;19.14;59.91
40730;BME280;26418;50.070;8.436;2023-05-23T08:51:13;100129.47;;;19.42;59.80
40730;BME280;26418;50.070;8.436;2023-05-23T08:53:41;100120.59;;;19.48;58.70
40730;BME280;26418;50.070;8.436;2023-05-23T08:56:13;100111.75;;;19.55;58.64
40730;BME280;26418;50.070;8.436;2023-05-23T08:58:41;100133.66;;;19.71;58.95
40730;BME280;26418;50.070;8.436;2023-05-23T09:01:08;100129.47;;;19.77;60.08
40730;BME280;26418;50.070;8.436;2023-05-23T09:03:35;100133.91;;;19.82;58.83
40730;BME280;26418;50.070;8.436;2023-05-23T09:06:08;100139.03;;;19.84;59.12
40730;BME280;26418;50.070;8.436;2023-05-23T09:08:35;100145.16;;;19.77;58.50
40730;BME280;26418;50.070;8.436;2023-05-23T09:11:01;100136.94;;;19.61;58.87
40730;BME280;26418;50.070;8.436;2023-05-23T09:13:32;100136.69;;;19.50;58.56
40730;BME280;26418;50.070;8.436;2023-05-23T09:18:32;100149.63;;;19.33;59.81
40730;BME280;26418;50.070;8.436;2023-05-23T09:21:00;100151.69;;;19.37;59.58
40730;BME280;26418;50.070;8.436;2023-05-23T09:23:29;100145.22;;;19.45;59.65
40730;BME280;26418;50.070;8.436;2023-05-23T09:25:55;100150.16;;;19.55;59.33
40730;BME280;26418;50.070;8.436;2023-05-23T09:28:21;100151.00;;;19.75;58.67
40730;BME280;26418;50.070;8.436;2023-05-23T09:30:56;100152.69;;;19.80;58.30
40730;BME280;26418;50.070;8.436;2023-05-23T09:33:22;100143.91;;;19.90;57.74
40730;BME280;26418;50.070;8.436;2023-05-23T09:35:53;100136.63;;;19.98;56.81
40730;BME280;26418;50.070;8.436;2023-05-23T09:38:18;100132.53;;;20.08;57.06
40730;BME280;26418;50.070;8.436;2023-05-23T09:40:44;100136.38;;;20.23;56.49
40730;BME280;26418;50.070;8.436;2023-05-23T09:43:10;100142.22;;;20.80;56.19
40730;BME280;26418;50.070;8.436;2023-05-23T09:45:35;100132.41;;;21.52;53.93
40730;BME280;26418;50.070;8.436;2023-05-23T09:48:01;100136.97;;;22.25;52.09
40730;BME280;26418;50.070;8.436;2023-05-23T09:50:31;100137.34;;;22.54;49.70
40730;BME280;26418;50.070;8.436;2023-05-23T09:52:58;100136.31;;;22.36;48.94
40730;BME280;26418;50.070;8.436;2023-05-23T09:55:24;100141.03;;;22.05;49.97
40730;BME280;26418;50.070;8.436;2023-05-23T09:57:52;100148.78;;;21.65;51.86
40730;BME280;26418;50.070;8.436;2023-05-23T10:00:22;100148.47;;;21.24;52.54
40730;BME280;26418;50.070;8.436;2023-05-23T10:02:59;100145.16;;;20.91;53.87
40730;BME280;26418;50.070;8.436;2023-05-23T10:08:01;100149.31;;;20.42;55.14
40730;BME280;26418;50.070;8.436;2023-05-23T10:10:30;100156.19;;;20.32;55.22
40730;BME280;26418;50.070;8.436;2023-05-23T10:12:59;100157.19;;;20.24;55.94
40730;BME280;26418;50.070;8.436;2023-05-23T10:15:29;100159.34;;;20.15;56.16
40730;BME280;26418;50.070;8.436;2023-05-23T10:18:09;100148.78;;;19.97;56.08
40730;BME280;26418;50.070;8.436;2023-05-23T10:20:39;100151.38;;;19.90;56.21
40730;BME280;26418;50.070;8.436;2023-05-23T10:23:07;100161.63;;;19.77;56.81
40730;BME280;26418;50.070;8.436;2023-05-23T10:25:33;100173.16;;;19.67;56.65
40730;BME280;26418;50.070;8.436;2023-05-23T10:28:02;100167.41;;;19.56;57.54
40730;BME280;26418;50.070;8.436;2023-05-23T10:30:28;100175.09;;;19.50;57.35
40730;BME280;26418;50.070;8.436;2023-05-23T10:32:55;100168.03;;;19.33;57.73
40730;BME280;26418;50.070;8.436;2023-05-23T10:36:07;100173.78;;;19.28;58.29
40730;BME280;26418;50.070;8.436;2023-05-23T10:39:03;100174.41;;;19.21;58.68
40730;BME280;26418;50.070;8.436;2023-05-23T10:44:11;100183.38;;;19.06;59.32
40730;BME280;26418;50.070;8.436;2023-05-23T10:46:59;100179.09;;;19.05;59.60
40730;BME280;26418;50.070;8.436;2023-05-23T10:52:04;100177.81;;;19.02;60.46
40730;BME280;26418;50.070;8.436;2023-05-23T10:54:43;100183.41;;;18.77;61.12
40730;BME280;26418;50.070;8.436;2023-05-23T10:57:10;100183.91;;;18.67;61.40
40730;BME280;26418;50.070;8.436;2023-05-23T10:59:39;100193.78;;;18.43;61.84
40730;BME280;26418;50.070;8.436;2023-05-23T11:02:13;100190.66;;;18.29;62.61
40730;BME280;26418;50.070;8.436;2023-05-23T11:04:42;100190.53;;;18.37;63.03
40730;BME280;26418;50.070;8.436;2023-05-23T11:07:30;100196.25;;;18.61;63.30
40730;BME280;26418;50.070;8.436;2023-05-23T11:10:22;100195.91;;;18.91;62.41
40730;BME280;26418;50.070;8.436;2023-05-23T11:12:48;100189.41;;;19.11;61.01
40730;BME280;26418;50.070;8.436;2023-05-23T11:17:56;100190.88;;;19.53;59.26
40730;BME280;26418;50.070;8.436;2023-05-23T11:20:24;100186.41;;;19.80;58.58
40730;BME280;26418;50.070;8.436;2023-05-23T11:22:53;100187.97;;;20.14;58.03
40730;BME280;26418;50.070;8.436;2023-05-23T11:25:20;100175.41;;;20.32;56.30
40730;BME280;26418;50.070;8.436;2023-05-23T11:27:47;100193.25;;;20.42;56.30
40730;BME280;26418;50.070;8.436;2023-05-23T11:30:16;100186.41;;;20.32;56.00
40730;BME280;26418;50.070;8.436;2023-05-23T11:32:49;100186.66;;;20.07;56.58
40730;BME280;26418;50.070;8.436;2023-05-23T11:35:15;100190.16;;;19.88;57.35
40730;BME280;26418;50.070;8.436;2023-05-23T11:37:42;100189.06;;;19.61;57.85
40730;BME280;26418;50.070;8.436;2023-05-23T11:42:50;100186.91;;;19.51;57.77
40730;BME280;26418;50.070;8.436;2023-05-23T11:45:18;100185.63;;;19.64;57.76
40730;BME280;26418;50.070;8.436;2023-05-23T11:47:44;100178.88;;;19.77;57.74
40730;BME280;26418;50.070;8.436;2023-05-23T11:50:10;100179.78;;;19.98;57.48
40730;BME280;26418;50.070;8.436;2023-05-23T11:52:35;100183.00;;;20.19;56.65
40730;BME280;26418;50.070;8.436;2023-05-23T11:55:01;100164.19;;;20.41;56.06
40730;BME280;26418;50.070;8.436;2023-05-23T11:57:27;100175.72;;;20.86;55.67
40730;BME280;26418;50.070;8.436;2023-05-23T11:59:53;100176.56;;;21.36;53.78
40730;BME280;26418;50.070;8.436;2023-05-23T12:02:20;100178.16;;;21.84;51.78
40730;BME280;26418;50.070;8.436;2023-05-23T12:04:45;100181.75;;;22.45;50.37
40730;BME280;26418;50.070;8.436;2023-05-23T12:07:11;100173.63;;;22.98;49.56
40730;BME280;26418;50.070;8.436;2023-05-23T12:09:46;100174.06;;;23.41;46.82
40730;BME280;26418;50.070;8.436;2023-05-23T12:12:12;100181.34;;;23.67;46.00
40730;BME280;26418;50.070;8.436;2023-05-23T12:14:38;100164.50;;;23.87;46.13
40730;BME280;26418;50.070;8.436;2023-05-23T12:17:11;100167.84;;;24.18;45.64
40730;BME280;26418;50.070;8.436;2023-05-23T12:19:38;100166.53;;;24.78;44.15
40730;BME280;26418;50.070;8.436;2023-05-23T12:22:07;100168.19;;;25.26;43.18
40730;BME280;26418;50.070;8.436;2023-05-23T12:24:33;100178.44;;;25.19;41.25
40730;BME280;26418;50.070;8.436;2023-05-23T12:27:00;100182.75;;;24.98;42.34
40730;BME280;26418;50.070;8.436;2023-05-23T12:29:34;100178.03;;;24.99;42.61
40730;BME280;26418;50.070;8.436;2023-05-23T12:32:04;100172.84;;;24.83;42.46
40730;BME280;26418;50.070;8.436;2023-05-23T12:34:30;100179.50;;;24.63;43.24
40730;BME280;26418;50.070;8.436;2023-05-23T12:36:57;100170.72;;;24.40;43.65
40730;BME280;26418;50.070;8.436;2023-05-23T12:39:26;100181.28;;;24.12;43.48
40730;BME280;26418;50.070;8.436;2023-05-23T12:41:52;100177.09;;;23.77;44.17
40730;BME280;26418;50.070;8.436;2023-05-23T12:44:21;100177.66;;;23.45;44.25
40730;BME280;26418;50.070;8.436;2023-05-23T12:46:46;100154.25;;;23.32;45.04
40730;BME280;26418;50.070;8.436;2023-05-23T12:49:12;100186.59;;;22.93;44.94
40730;BME280;26418;50.070;8.436;2023-05-23T12:51:39;100188.25;;;22.64;46.17
40730;BME280;26418;50.070;8.436;2023-05-23T12:54:04;100193.91;;;22.75;46.91
40730;BME280;26418;50.070;8.436;2023-05-23T12:56:30;100185.81;;;22.59;46.21
40730;BME280;26418;50.070;8.436;2023-05-23T12:58:56;100189.69;;;22.54;46.27
40730;BME280;26418;50.070;8.436;2023-05-23T13:01:21;100190.94;;;22.57;46.79
40730;BME280;26418;50.070;8.436;2023-05-23T13:03:47;100186.81;;;22.43;46.70
40730;BME280;26418;50.070;8.436;2023-05-23T13:06:13;100185.72;;;22.21;46.70
40730;BME280;26418;50.070;8.436;2023-05-23T13:08:38;100194.91;;;22.02;47.01
40730;BME280;26418;50.070;8.436;2023-05-23T13:11:04;100202.81;;;21.77;48.00
40730;BME280;26418;50.070;8.436;2023-05-23T13:13:30;100188.50;;;21.67;48.55